sensor_id;sensor_type;location;lat;lon;timestamp;temperature;humidity
21489;DHT22;10906;45.194;5.684;2022-08-01T05:01:52;21.60;72.40
21489;DHT22;10906;45.194;5.684;2022-08-01T05:04:37;21.60;72.50
21489;DHT22;10906;45.194;5.684;2022-08-01T05:07:22;21.60;72.40
21489;DHT22;10906;45.194;5.684;2022-08-01T05:10:07;21.60;72.80
21489;DHT22;10906;45.194;5.684;2022-08-01T05:12:52;21.60;72.80
21489;DHT22;10906;45.194;5.684;2022-08-01T05:15:36;21.60;73.60
21489;DHT22;10906;45.194;5.684;2022-08-01T05:18:21;21.60;73.10
21489;DHT22;10906;45.194;5.684;2022-08-01T05:21:05;21.60;73.30
21489;DHT22;10906;45.194;5.684;2022-08-01T05:23:50;21.60;73.40
21489;DHT22;10906;45.194;5.684;2022-08-01T05:26:34;21.70;73.30
21489;DHT22;10906;45.194;5.684;2022-08-01T05:29:19;21.70;73.20
21489;DHT22;10906;45.194;5.684;2022-08-01T05:32:03;21.70;73.10
21489;DHT22;10906;45.194;5.684;2022-08-01T05:34:48;21.80;73.20
21489;DHT22;10906;45.194;5.684;2022-08-01T05:37:33;21.80;73.00
21489;DHT22;10906;45.194;5.684;2022-08-01T05:40:17;21.90;73.00
21489;DHT22;10906;45.194;5.684;2022-08-01T05:43:02;21.90;72.80
21489;DHT22;10906;45.194;5.684;2022-08-01T05:45:46;22.00;72.90
21489;DHT22;10906;45.194;5.684;2022-08-01T05:48:31;22.00;72.80
21489;DHT22;10906;45.194;5.684;2022-08-01T05:51:16;22.10;72.90
21489;DHT22;10906;45.194;5.684;2022-08-01T05:54:00;22.10;73.00
21489;DHT22;10906;45.194;5.684;2022-08-01T05:56:45;22.20;72.80
21489;DHT22;10906;45.194;5.684;2022-08-01T05:59:29;22.20;72.50
21489;DHT22;10906;45.194;5.684;2022-08-01T06:02:14;22.30;72.60
21489;DHT22;10906;45.194;5.684;2022-08-01T06:04:59;22.40;72.80
21489;DHT22;10906;45.194;5.684;2022-08-01T06:07:43;22.50;72.40
21489;DHT22;10906;45.194;5.684;2022-08-01T06:10:28;22.50;72.20
21489;DHT22;10906;45.194;5.684;2022-08-01T06:13:13;22.60;72.20
21489;DHT22;10906;45.194;5.684;2022-08-01T06:15:57;22.60;71.90
21489;DHT22;10906;45.194;5.684;2022-08-01T06:18:43;22.70;71.90
21489;DHT22;10906;45.194;5.684;2022-08-01T06:21:27;22.70;71.70
21489;DHT22;10906;45.194;5.684;2022-08-01T06:24:11;22.80;71.70
21489;DHT22;10906;45.194;5.684;2022-08-01T06:26:56;22.80;71.50
21489;DHT22;10906;45.194;5.684;2022-08-01T06:29:41;22.80;71.40
21489;DHT22;10906;45.194;5.684;2022-08-01T06:32:27;22.90;71.10
21489;DHT22;10906;45.194;5.684;2022-08-01T06:35:11;23.00;70.80
21489;DHT22;10906;45.194;5.684;2022-08-01T06:37:56;23.00;70.60
21489;DHT22;10906;45.194;5.684;2022-08-01T06:40:40;23.10;70.50
21489;DHT22;10906;45.194;5.684;2022-08-01T06:43:25;23.10;70.10
21489;DHT22;10906;45.194;5.684;2022-08-01T06:46:09;23.10;70.10
21489;DHT22;10906;45.194;5.684;2022-08-01T06:48:54;23.30;70.30
21489;DHT22;10906;45.194;5.684;2022-08-01T06:51:38;23.30;70.20
21489;DHT22;10906;45.194;5.684;2022-08-01T06:54:22;23.40;70.20
21489;DHT22;10906;45.194;5.684;2022-08-01T06:57:07;23.50;69.70
21489;DHT22;10906;45.194;5.684;2022-08-01T06:59:52;23.60;69.10
21489;DHT22;10906;45.194;5.684;2022-08-01T07:02:37;23.70;69.20
21489;DHT22;10906;45.194;5.684;2022-08-01T07:05:22;23.70;69.10
21489;DHT22;10906;45.194;5.684;2022-08-01T07:08:06;23.90;69.20
21489;DHT22;10906;45.194;5.684;2022-08-01T07:10:50;24.00;68.90
21489;DHT22;10906;45.194;5.684;2022-08-01T07:13:34;24.00;68.30
21489;DHT22;10906;45.194;5.684;2022-08-01T07:16:18;24.10;68.30
21489;DHT22;10906;45.194;5.684;2022-08-01T07:19:03;24.30;68.50
21489;DHT22;10906;45.194;5.684;2022-08-01T07:21:47;24.50;68.20
21489;DHT22;10906;45.194;5.684;2022-08-01T07:24:31;24.70;67.40
21489;DHT22;10906;45.194;5.684;2022-08-01T07:27:16;24.90;66.80
21489;DHT22;10906;45.194;5.684;2022-08-01T07:30:01;25.00;66.40
21489;DHT22;10906;45.194;5.684;2022-08-01T07:32:45;25.10;66.60
21489;DHT22;10906;45.194;5.684;2022-08-01T07:35:30;25.30;65.10
21489;DHT22;10906;45.194;5.684;2022-08-01T07:38:14;25.40;64.80
21489;DHT22;10906;45.194;5.684;2022-08-01T07:41:02;25.50;65.30
21489;DHT22;10906;45.194;5.684;2022-08-01T07:43:46;25.70;64.40
21489;DHT22;10906;45.194;5.684;2022-08-01T07:46:32;26.00;64.00
21489;DHT22;10906;45.194;5.684;2022-08-01T07:49:17;26.10;63.40
21489;DHT22;10906;45.194;5.684;2022-08-01T07:52:02;26.30;62.90
21489;DHT22;10906;45.194;5.684;2022-08-01T07:54:46;26.50;62.70
21489;DHT22;10906;45.194;5.684;2022-08-01T07:57:30;26.50;62.00
21489;DHT22;10906;45.194;5.684;2022-08-01T08:00:15;26.70;62.10
21489;DHT22;10906;45.194;5.684;2022-08-01T08:03:00;26.90;62.20
21489;DHT22;10906;45.194;5.684;2022-08-01T08:05:44;27.00;61.40
21489;DHT22;10906;45.194;5.684;2022-08-01T08:08:29;27.20;61.30
21489;DHT22;10906;45.194;5.684;2022-08-01T08:11:13;27.40;60.30
21489;DHT22;10906;45.194;5.684;2022-08-01T08:13:58;27.50;59.90
21489;DHT22;10906;45.194;5.684;2022-08-01T08:16:43;27.70;59.60
21489;DHT22;10906;45.194;5.684;2022-08-01T08:19:27;27.90;59.40
21489;DHT22;10906;45.194;5.684;2022-08-01T08:22:12;27.90;58.40
21489;DHT22;10906;45.194;5.684;2022-08-01T08:24:56;28.00;58.70
21489;DHT22;10906;45.194;5.684;2022-08-01T08:27:41;28.30;58.30
21489;DHT22;10906;45.194;5.684;2022-08-01T08:30:25;28.40;57.60
21489;DHT22;10906;45.194;5.684;2022-08-01T08:33:09;28.50;57.10
21489;DHT22;10906;45.194;5.684;2022-08-01T08:35:53;28.70;57.20
21489;DHT22;10906;45.194;5.684;2022-08-01T08:38:38;28.90;56.50
21489;DHT22;10906;45.194;5.684;2022-08-01T08:41:23;29.10;56.00
21489;DHT22;10906;45.194;5.684;2022-08-01T08:44:08;29.20;56.20
21489;DHT22;10906;45.194;5.684;2022-08-01T08:46:53;29.30;55.90
21489;DHT22;10906;45.194;5.684;2022-08-01T08:49:42;29.50;56.00
21489;DHT22;10906;45.194;5.684;2022-08-01T08:52:27;29.60;55.50
21489;DHT22;10906;45.194;5.684;2022-08-01T08:55:12;29.80;55.10
21489;DHT22;10906;45.194;5.684;2022-08-01T08:57:58;29.80;54.50
21489;DHT22;10906;45.194;5.684;2022-08-01T09:00:44;29.90;54.50
21489;DHT22;10906;45.194;5.684;2022-08-01T09:03:29;30.10;53.90
21489;DHT22;10906;45.194;5.684;2022-08-01T09:06:13;30.10;53.60
21489;DHT22;10906;45.194;5.684;2022-08-01T09:08:59;30.30;53.40
21489;DHT22;10906;45.194;5.684;2022-08-01T09:11:44;30.30;52.90
21489;DHT22;10906;45.194;5.684;2022-08-01T09:14:28;30.40;52.90
21489;DHT22;10906;45.194;5.684;2022-08-01T09:17:16;30.60;52.90
21489;DHT22;10906;45.194;5.684;2022-08-01T09:20:00;30.80;52.10
21489;DHT22;10906;45.194;5.684;2022-08-01T09:22:44;30.60;51.60
21489;DHT22;10906;45.194;5.684;2022-08-01T09:25:28;30.60;51.70
21489;DHT22;10906;45.194;5.684;2022-08-01T09:28:17;30.60;51.80
21489;DHT22;10906;45.194;5.684;2022-08-01T09:31:10;30.60;51.90
21489;DHT22;10906;45.194;5.684;2022-08-01T09:34:00;30.80;51.10
21489;DHT22;10906;45.194;5.684;2022-08-01T09:36:51;30.80;51.40
21489;DHT22;10906;45.194;5.684;2022-08-01T09:39:37;31.00;51.80
21489;DHT22;10906;45.194;5.684;2022-08-01T09:42:25;31.20;51.10
21489;DHT22;10906;45.194;5.684;2022-08-01T09:45:10;31.20;50.80
21489;DHT22;10906;45.194;5.684;2022-08-01T09:48:14;31.20;50.50
21489;DHT22;10906;45.194;5.684;2022-08-01T09:51:02;31.40;51.20
21489;DHT22;10906;45.194;5.684;2022-08-01T09:53:48;31.60;50.30
21489;DHT22;10906;45.194;5.684;2022-08-01T09:56:41;31.70;50.00
21489;DHT22;10906;45.194;5.684;2022-08-01T09:59:37;31.70;49.70
21489;DHT22;10906;45.194;5.684;2022-08-01T10:02:32;31.80;49.70
21489;DHT22;10906;45.194;5.684;2022-08-01T10:05:18;32.00;48.90
21489;DHT22;10906;45.194;5.684;2022-08-01T10:08:13;32.00;49.40
21489;DHT22;10906;45.194;5.684;2022-08-01T10:11:07;32.20;49.20
21489;DHT22;10906;45.194;5.684;2022-08-01T10:13:52;32.40;49.10
21489;DHT22;10906;45.194;5.684;2022-08-01T10:16:38;32.70;48.70
21489;DHT22;10906;45.194;5.684;2022-08-01T10:19:25;32.90;48.40
21489;DHT22;10906;45.194;5.684;2022-08-01T10:22:11;33.00;47.90
21489;DHT22;10906;45.194;5.684;2022-08-01T10:25:04;33.00;47.70
21489;DHT22;10906;45.194;5.684;2022-08-01T10:27:50;33.20;47.70
21489;DHT22;10906;45.194;5.684;2022-08-01T10:30:37;33.40;47.40
21489;DHT22;10906;45.194;5.684;2022-08-01T10:33:23;33.50;47.10
21489;DHT22;10906;45.194;5.684;2022-08-01T10:36:08;33.60;46.50
21489;DHT22;10906;45.194;5.684;2022-08-01T10:38:54;33.70;46.30
21489;DHT22;10906;45.194;5.684;2022-08-01T10:41:39;33.80;46.00
21489;DHT22;10906;45.194;5.684;2022-08-01T10:44:26;33.90;45.10
21489;DHT22;10906;45.194;5.684;2022-08-01T10:47:12;34.20;45.40
21489;DHT22;10906;45.194;5.684;2022-08-01T10:50:07;34.30;45.00
21489;DHT22;10906;45.194;5.684;2022-08-01T10:53:23;34.40;44.10
21489;DHT22;10906;45.194;5.684;2022-08-01T10:56:07;34.40;43.70
21489;DHT22;10906;45.194;5.684;2022-08-01T10:59:02;34.50;44.30
21489;DHT22;10906;45.194;5.684;2022-08-01T11:01:58;34.50;44.40
21489;DHT22;10906;45.194;5.684;2022-08-01T11:05:09;34.70;43.40
21489;DHT22;10906;45.194;5.684;2022-08-01T11:08:00;34.80;43.20
21489;DHT22;10906;45.194;5.684;2022-08-01T11:10:45;34.80;43.10
21489;DHT22;10906;45.194;5.684;2022-08-01T11:16:44;34.90;42.40
21489;DHT22;10906;45.194;5.684;2022-08-01T11:28:32;35.10;43.00
21489;DHT22;10906;45.194;5.684;2022-08-01T11:34:05;35.40;41.60
21489;DHT22;10906;45.194;5.684;2022-08-01T11:37:28;35.50;41.40
21489;DHT22;10906;45.194;5.684;2022-08-01T11:40:29;35.40;39.70
21489;DHT22;10906;45.194;5.684;2022-08-01T11:45:57;35.60;40.90
21489;DHT22;10906;45.194;5.684;2022-08-01T11:48:42;35.50;39.90
21489;DHT22;10906;45.194;5.684;2022-08-01T11:51:26;35.50;40.40
21489;DHT22;10906;45.194;5.684;2022-08-01T11:54:11;35.60;40.40
21489;DHT22;10906;45.194;5.684;2022-08-01T11:56:58;35.70;40.10
21489;DHT22;10906;45.194;5.684;2022-08-01T11:59:51;35.60;39.50
21489;DHT22;10906;45.194;5.684;2022-08-01T12:02:36;35.60;39.60
21489;DHT22;10906;45.194;5.684;2022-08-01T12:05:20;35.90;39.90
21489;DHT22;10906;45.194;5.684;2022-08-01T12:08:05;36.00;39.50
21489;DHT22;10906;45.194;5.684;2022-08-01T12:10:49;36.00;40.00
21489;DHT22;10906;45.194;5.684;2022-08-01T12:13:41;36.20;39.20
21489;DHT22;10906;45.194;5.684;2022-08-01T12:16:27;36.30;38.60
21489;DHT22;10906;45.194;5.684;2022-08-01T12:19:20;36.40;38.60
21489;DHT22;10906;45.194;5.684;2022-08-01T12:24:53;36.30;37.90
21489;DHT22;10906;45.194;5.684;2022-08-01T12:27:40;36.30;38.10
21489;DHT22;10906;45.194;5.684;2022-08-01T12:30:24;36.40;37.90
21489;DHT22;10906;45.194;5.684;2022-08-01T13:14:38;36.90;34.20
21489;DHT22;10906;45.194;5.684;2022-08-01T13:17:35;36.80;35.30
21489;DHT22;10906;45.194;5.684;2022-08-01T13:20:30;36.70;35.00
21489;DHT22;10906;45.194;5.684;2022-08-01T13:23:15;36.80;35.20
21489;DHT22;10906;45.194;5.684;2022-08-01T13:25:59;36.80;33.10
21489;DHT22;10906;45.194;5.684;2022-08-01T13:28:43;36.70;35.20
21489;DHT22;10906;45.194;5.684;2022-08-01T13:31:36;36.80;35.30
21489;DHT22;10906;45.194;5.684;2022-08-01T13:34:34;37.00;35.00
21489;DHT22;10906;45.194;5.684;2022-08-01T13:37:18;37.20;34.90
21489;DHT22;10906;45.194;5.684;2022-08-01T13:40:03;37.30;34.80
21489;DHT22;10906;45.194;5.684;2022-08-01T13:42:47;37.30;34.30
21489;DHT22;10906;45.194;5.684;2022-08-01T13:45:32;37.30;34.00
21489;DHT22;10906;45.194;5.684;2022-08-01T13:48:16;37.20;33.10
21489;DHT22;10906;45.194;5.684;2022-08-01T13:51:00;36.90;33.20
21489;DHT22;10906;45.194;5.684;2022-08-01T13:53:44;36.80;33.40
21489;DHT22;10906;45.194;5.684;2022-08-01T13:56:29;36.80;33.70
21489;DHT22;10906;45.194;5.684;2022-08-01T13:59:13;36.70;33.10
21489;DHT22;10906;45.194;5.684;2022-08-01T14:01:58;36.90;33.50
21489;DHT22;10906;45.194;5.684;2022-08-01T14:04:42;37.10;33.20
21489;DHT22;10906;45.194;5.684;2022-08-01T14:07:27;37.30;33.00
21489;DHT22;10906;45.194;5.684;2022-08-01T14:10:11;37.40;32.80
21489;DHT22;10906;45.194;5.684;2022-08-01T14:12:56;37.50;32.60
21489;DHT22;10906;45.194;5.684;2022-08-01T14:15:41;37.50;32.40
21489;DHT22;10906;45.194;5.684;2022-08-01T14:18:26;37.40;32.20
21489;DHT22;10906;45.194;5.684;2022-08-01T14:21:11;37.40;32.60
21489;DHT22;10906;45.194;5.684;2022-08-01T14:23:56;37.50;32.50
21489;DHT22;10906;45.194;5.684;2022-08-01T14:26:40;37.50;32.40
21489;DHT22;10906;45.194;5.684;2022-08-01T14:29:24;37.60;32.20
21489;DHT22;10906;45.194;5.684;2022-08-01T14:32:09;37.70;32.10
21489;DHT22;10906;45.194;5.684;2022-08-01T14:34:53;37.50;31.80
21489;DHT22;10906;45.194;5.684;2022-08-01T14:37:37;37.50;32.30
21489;DHT22;10906;45.194;5.684;2022-08-01T14:40:21;37.60;32.30
21489;DHT22;10906;45.194;5.684;2022-08-01T14:43:05;37.70;32.20
21489;DHT22;10906;45.194;5.684;2022-08-01T14:45:50;37.70;32.10
21489;DHT22;10906;45.194;5.684;2022-08-01T14:48:36;37.80;32.50
21489;DHT22;10906;45.194;5.684;2022-08-01T14:51:20;37.90;32.00
21489;DHT22;10906;45.194;5.684;2022-08-01T14:54:05;38.00;32.30
21489;DHT22;10906;45.194;5.684;2022-08-01T14:56:49;38.20;32.30
21489;DHT22;10906;45.194;5.684;2022-08-01T14:59:36;38.20;31.80
21489;DHT22;10906;45.194;5.684;2022-08-01T15:02:21;38.30;32.00
21489;DHT22;10906;45.194;5.684;2022-08-01T15:05:05;38.20;32.00
21489;DHT22;10906;45.194;5.684;2022-08-01T15:07:50;38.30;32.50
21489;DHT22;10906;45.194;5.684;2022-08-01T15:10:35;38.30;31.80
21489;DHT22;10906;45.194;5.684;2022-08-01T15:13:19;38.40;31.90
21489;DHT22;10906;45.194;5.684;2022-08-01T15:16:04;38.30;31.00
21489;DHT22;10906;45.194;5.684;2022-08-01T15:18:48;38.00;30.90
21489;DHT22;10906;45.194;5.684;2022-08-01T15:21:32;37.90;31.00
21489;DHT22;10906;45.194;5.684;2022-08-01T15:24:16;37.80;31.10
21489;DHT22;10906;45.194;5.684;2022-08-01T15:27:00;37.90;30.90
21489;DHT22;10906;45.194;5.684;2022-08-01T15:29:45;37.70;30.30
21489;DHT22;10906;45.194;5.684;2022-08-01T15:32:29;37.50;30.50
21489;DHT22;10906;45.194;5.684;2022-08-01T15:35:13;37.40;30.40
21489;DHT22;10906;45.194;5.684;2022-08-01T15:37:57;37.30;31.20
21489;DHT22;10906;45.194;5.684;2022-08-01T15:40:42;37.50;30.60
21489;DHT22;10906;45.194;5.684;2022-08-01T15:43:26;37.40;30.30
21489;DHT22;10906;45.194;5.684;2022-08-01T15:46:11;37.20;30.30
21489;DHT22;10906;45.194;5.684;2022-08-01T15:48:55;37.30;30.60
21489;DHT22;10906;45.194;5.684;2022-08-01T15:51:39;37.20;30.40
21489;DHT22;10906;45.194;5.684;2022-08-01T15:54:24;37.20;30.40
21489;DHT22;10906;45.194;5.684;2022-08-01T15:57:08;37.00;29.80
21489;DHT22;10906;45.194;5.684;2022-08-01T15:59:53;36.80;30.00
21489;DHT22;10906;45.194;5.684;2022-08-01T16:02:38;36.80;30.20
21489;DHT22;10906;45.194;5.684;2022-08-01T16:05:23;36.80;29.90
21489;DHT22;10906;45.194;5.684;2022-08-01T16:08:07;36.60;30.00
21489;DHT22;10906;45.194;5.684;2022-08-01T16:10:51;36.50;30.10
21489;DHT22;10906;45.194;5.684;2022-08-01T16:13:35;36.60;30.10
21489;DHT22;10906;45.194;5.684;2022-08-01T16:16:20;36.60;30.40
21489;DHT22;10906;45.194;5.684;2022-08-01T16:19:04;36.70;30.70
21489;DHT22;10906;45.194;5.684;2022-08-01T16:21:49;36.70;30.20
21489;DHT22;10906;45.194;5.684;2022-08-01T16:24:34;36.60;30.30
21489;DHT22;10906;45.194;5.684;2022-08-01T16:27:22;36.70;30.50
21489;DHT22;10906;45.194;5.684;2022-08-01T16:30:07;36.80;30.50
21489;DHT22;10906;45.194;5.684;2022-08-01T16:32:51;36.70;30.30
21489;DHT22;10906;45.194;5.684;2022-08-01T16:35:36;36.60;30.10
21489;DHT22;10906;45.194;5.684;2022-08-01T16:38:21;36.60;30.10
21489;DHT22;10906;45.194;5.684;2022-08-01T16:41:06;36.30;30.30
21489;DHT22;10906;45.194;5.684;2022-08-01T16:43:51;36.00;30.90
21489;DHT22;10906;45.194;5.684;2022-08-01T16:46:35;35.20;37.90
21489;DHT22;10906;45.194;5.684;2022-08-01T16:49:19;33.90;39.90
21489;DHT22;10906;45.194;5.684;2022-08-01T16:52:04;32.30;38.70
21489;DHT22;10906;45.194;5.684;2022-08-01T16:54:48;32.20;41.70
21489;DHT22;10906;45.194;5.684;2022-08-01T16:57:33;31.60;41.70
21489;DHT22;10906;45.194;5.684;2022-08-01T17:00:21;31.30;42.00
21489;DHT22;10906;45.194;5.684;2022-08-01T17:03:08;31.20;44.50
21489;DHT22;10906;45.194;5.684;2022-08-01T17:05:52;31.00;45.00
21489;DHT22;10906;45.194;5.684;2022-08-01T17:08:37;30.90;44.80
21489;DHT22;10906;45.194;5.684;2022-08-01T17:11:21;31.00;44.30
21489;DHT22;10906;45.194;5.684;2022-08-01T17:14:06;30.90;43.80
21489;DHT22;10906;45.194;5.684;2022-08-01T17:16:50;30.70;43.50
21489;DHT22;10906;45.194;5.684;2022-08-01T17:19:34;30.50;44.90
21489;DHT22;10906;45.194;5.684;2022-08-01T17:22:19;30.50;43.30
21489;DHT22;10906;45.194;5.684;2022-08-01T17:25:03;30.40;44.90
21489;DHT22;10906;45.194;5.684;2022-08-01T17:27:47;30.30;44.50
21489;DHT22;10906;45.194;5.684;2022-08-01T17:30:35;30.30;43.80
21489;DHT22;10906;45.194;5.684;2022-08-01T17:33:21;30.40;43.40
21489;DHT22;10906;45.194;5.684;2022-08-01T17:36:06;30.50;42.70
21489;DHT22;10906;45.194;5.684;2022-08-01T17:38:51;30.50;42.30
21489;DHT22;10906;45.194;5.684;2022-08-01T17:41:35;30.60;42.20
21489;DHT22;10906;45.194;5.684;2022-08-01T17:44:19;30.60;42.60
21489;DHT22;10906;45.194;5.684;2022-08-01T17:47:04;30.60;42.80
21489;DHT22;10906;45.194;5.684;2022-08-01T17:49:48;30.50;42.70
21489;DHT22;10906;45.194;5.684;2022-08-01T17:52:33;30.50;42.00
21489;DHT22;10906;45.194;5.684;2022-08-01T17:55:17;30.50;43.70
21489;DHT22;10906;45.194;5.684;2022-08-01T17:58:02;30.50;42.80
21489;DHT22;10906;45.194;5.684;2022-08-01T18:00:48;30.40;43.50
21489;DHT22;10906;45.194;5.684;2022-08-01T18:03:32;30.40;43.20
21489;DHT22;10906;45.194;5.684;2022-08-01T18:06:17;30.40;43.20
21489;DHT22;10906;45.194;5.684;2022-08-01T18:09:02;30.40;42.70
21489;DHT22;10906;45.194;5.684;2022-08-01T18:11:47;30.30;43.00
21489;DHT22;10906;45.194;5.684;2022-08-01T18:14:31;30.40;42.70
21489;DHT22;10906;45.194;5.684;2022-08-01T18:17:15;30.40;42.60
21489;DHT22;10906;45.194;5.684;2022-08-01T18:20:00;30.30;43.00
21489;DHT22;10906;45.194;5.684;2022-08-01T18:22:44;30.30;42.50
21489;DHT22;10906;45.194;5.684;2022-08-01T18:25:29;30.20;42.40
21489;DHT22;10906;45.194;5.684;2022-08-01T18:28:13;30.40;42.60
21489;DHT22;10906;45.194;5.684;2022-08-01T18:30:57;30.40;42.80
21489;DHT22;10906;45.194;5.684;2022-08-01T18:33:42;30.30;43.30
21489;DHT22;10906;45.194;5.684;2022-08-01T18:36:26;30.20;43.30
21489;DHT22;10906;45.194;5.684;2022-08-01T18:39:11;30.20;43.00
21489;DHT22;10906;45.194;5.684;2022-08-01T18:41:55;30.20;43.20
21489;DHT22;10906;45.194;5.684;2022-08-01T18:44:41;30.20;43.30
21489;DHT22;10906;45.194;5.684;2022-08-01T18:47:25;30.10;43.20
21489;DHT22;10906;45.194;5.684;2022-08-01T18:50:10;30.20;43.00
21489;DHT22;10906;45.194;5.684;2022-08-01T18:52:54;30.10;43.70
21489;DHT22;10906;45.194;5.684;2022-08-01T18:55:38;30.10;43.80
21489;DHT22;10906;45.194;5.684;2022-08-01T18:58:23;30.00;43.80
21489;DHT22;10906;45.194;5.684;2022-08-01T19:01:07;30.10;43.70
21489;DHT22;10906;45.194;5.684;2022-08-01T19:03:51;30.10;43.70
21489;DHT22;10906;45.194;5.684;2022-08-01T19:06:36;30.00;43.60
21489;DHT22;10906;45.194;5.684;2022-08-01T19:09:21;30.00;43.40
21489;DHT22;10906;45.194;5.684;2022-08-01T19:12:06;30.00;43.60
21489;DHT22;10906;45.194;5.684;2022-08-01T19:14:51;30.00;43.60
21489;DHT22;10906;45.194;5.684;2022-08-01T19:17:35;29.90;43.80
21489;DHT22;10906;45.194;5.684;2022-08-01T19:20:19;29.90;44.00
21489;DHT22;10906;45.194;5.684;2022-08-01T19:23:04;29.80;43.90
21489;DHT22;10906;45.194;5.684;2022-08-01T19:26:09;29.80;44.20
21489;DHT22;10906;45.194;5.684;2022-08-01T19:28:57;29.80;44.20
21489;DHT22;10906;45.194;5.684;2022-08-01T19:31:44;29.70;44.10
21489;DHT22;10906;45.194;5.684;2022-08-01T19:34:29;29.80;44.20
21489;DHT22;10906;45.194;5.684;2022-08-01T19:37:14;29.80;44.20
21489;DHT22;10906;45.194;5.684;2022-08-01T19:39:59;29.70;44.10
21489;DHT22;10906;45.194;5.684;2022-08-01T19:42:43;29.70;44.60
21489;DHT22;10906;45.194;5.684;2022-08-01T19:45:28;29.60;44.40
21489;DHT22;10906;45.194;5.684;2022-08-01T19:48:13;29.60;44.70
21489;DHT22;10906;45.194;5.684;2022-08-01T19:50:59;29.50;45.00
21489;DHT22;10906;45.194;5.684;2022-08-01T19:53:51;29.50;45.30
21489;DHT22;10906;45.194;5.684;2022-08-01T19:56:38;29.50;45.20
21489;DHT22;10906;45.194;5.684;2022-08-01T19:59:23;29.40;45.30
21489;DHT22;10906;45.194;5.684;2022-08-01T20:02:08;29.50;45.20
21489;DHT22;10906;45.194;5.684;2022-08-01T20:04:53;29.40;45.30
21489;DHT22;10906;45.194;5.684;2022-08-01T20:07:36;29.40;45.50
21489;DHT22;10906;45.194;5.684;2022-08-01T20:10:21;29.30;45.70
21489;DHT22;10906;45.194;5.684;2022-08-01T20:13:07;29.30;45.40
21489;DHT22;10906;45.194;5.684;2022-08-01T20:15:54;29.30;45.60
21489;DHT22;10906;45.194;5.684;2022-08-01T20:18:39;29.30;45.40
21489;DHT22;10906;45.194;5.684;2022-08-01T20:21:25;29.30;45.40
21489;DHT22;10906;45.194;5.684;2022-08-01T20:24:13;29.30;45.40
21489;DHT22;10906;45.194;5.684;2022-08-01T20:26:58;29.20;45.80
21489;DHT22;10906;45.194;5.684;2022-08-01T20:29:44;29.10;46.00
21489;DHT22;10906;45.194;5.684;2022-08-01T20:32:32;29.10;46.20
21489;DHT22;10906;45.194;5.684;2022-08-01T20:35:16;29.10;47.00
21489;DHT22;10906;45.194;5.684;2022-08-01T20:38:01;29.00;46.80
21489;DHT22;10906;45.194;5.684;2022-08-01T20:40:47;28.90;47.00
21489;DHT22;10906;45.194;5.684;2022-08-01T20:43:33;28.80;47.30
21489;DHT22;10906;45.194;5.684;2022-08-01T20:46:17;28.80;47.90
21489;DHT22;10906;45.194;5.684;2022-08-01T20:49:03;28.70;47.70
21489;DHT22;10906;45.194;5.684;2022-08-01T20:51:48;28.60;48.00
21489;DHT22;10906;45.194;5.684;2022-08-01T20:54:34;28.50;48.70
21489;DHT22;10906;45.194;5.684;2022-08-01T20:57:22;28.40;48.70
21489;DHT22;10906;45.194;5.684;2022-08-01T21:00:09;28.30;48.90
21489;DHT22;10906;45.194;5.684;2022-08-01T21:03:15;28.20;49.10
21489;DHT22;10906;45.194;5.684;2022-08-01T21:06:15;28.30;49.40
21489;DHT22;10906;45.194;5.684;2022-08-01T21:09:03;28.20;49.80
21489;DHT22;10906;45.194;5.684;2022-08-01T21:11:55;28.10;49.70
21489;DHT22;10906;45.194;5.684;2022-08-01T21:14:48;28.10;49.70
21489;DHT22;10906;45.194;5.684;2022-08-01T21:17:45;28.00;49.90
21489;DHT22;10906;45.194;5.684;2022-08-01T21:20:32;28.00;50.10
21489;DHT22;10906;45.194;5.684;2022-08-01T21:23:31;27.90;50.40
21489;DHT22;10906;45.194;5.684;2022-08-01T21:26:19;27.80;50.30
21489;DHT22;10906;45.194;5.684;2022-08-01T21:29:07;27.70;50.20
21489;DHT22;10906;45.194;5.684;2022-08-01T21:31:53;27.70;50.90
21489;DHT22;10906;45.194;5.684;2022-08-01T21:34:58;27.60;50.90
21489;DHT22;10906;45.194;5.684;2022-08-01T21:37:44;27.50;51.10
21489;DHT22;10906;45.194;5.684;2022-08-01T21:40:33;27.50;50.30
21489;DHT22;10906;45.194;5.684;2022-08-01T21:43:19;27.50;50.70
21489;DHT22;10906;45.194;5.684;2022-08-01T21:46:04;27.40;50.90
21489;DHT22;10906;45.194;5.684;2022-08-01T21:48:49;27.30;51.10
21489;DHT22;10906;45.194;5.684;2022-08-01T21:51:42;27.20;51.30
21489;DHT22;10906;45.194;5.684;2022-08-01T21:55:19;27.10;51.60
